createdAt,value
2018-05-15T00:03:41.070Z,17.10
2018-05-15T00:08:33.347Z,17.00
2018-05-15T00:13:24.813Z,16.90
2018-05-15T00:18:16.299Z,17.00
2018-05-15T00:23:08.536Z,16.90
2018-05-15T00:28:00.760Z,16.80
2018-05-15T00:32:52.265Z,16.80
2018-05-15T00:37:43.750Z,16.70
2018-05-15T00:42:35.976Z,16.40
2018-05-15T00:47:27.529Z,16.30
2018-05-15T00:52:19.025Z,16.20
2018-05-15T00:57:10.518Z,15.90
2018-05-15T01:02:03.656Z,15.60
2018-05-15T01:06:55.156Z,15.50
2018-05-15T01:11:46.623Z,15.50
2018-05-15T01:16:38.138Z,15.30
2018-05-15T01:21:29.629Z,15.10
2018-05-15T01:26:21.127Z,14.90
2018-05-15T01:31:12.608Z,14.80
2018-05-15T01:36:04.148Z,14.60
2018-05-15T01:40:55.685Z,14.60
2018-05-15T01:45:47.163Z,14.70
2018-05-15T01:50:38.671Z,14.80
2018-05-15T01:55:30.172Z,14.80
2018-05-15T02:00:21.656Z,14.80
2018-05-15T02:05:13.184Z,14.80
2018-05-15T02:10:04.681Z,14.80
2018-05-15T02:14:56.164Z,14.80
2018-05-15T02:19:47.666Z,14.60
2018-05-15T02:24:39.204Z,14.60
2018-05-15T02:29:30.739Z,14.50
2018-05-15T02:34:22.225Z,14.40
2018-05-15T02:39:13.726Z,14.40
2018-05-15T02:44:05.220Z,14.40
2018-05-15T02:48:56.691Z,14.30
2018-05-15T02:53:48.191Z,14.20
2018-05-15T02:58:39.703Z,14.10
2018-05-15T03:03:31.197Z,14.10
2018-05-15T03:08:22.709Z,14.10
2018-05-15T03:13:14.229Z,14.00
2018-05-15T03:18:05.742Z,13.90
2018-05-15T03:22:57.234Z,13.60
2018-05-15T03:27:48.736Z,13.50
2018-05-15T03:32:40.251Z,13.40
2018-05-15T03:37:31.776Z,13.30
2018-05-15T03:42:23.295Z,13.20
2018-05-15T03:47:15.642Z,13.10
2018-05-15T03:52:07.094Z,13.00
2018-05-15T03:56:58.591Z,13.00
2018-05-15T04:02:08.545Z,13.00
2018-05-15T04:07:18.546Z,13.00
2018-05-15T04:12:10.781Z,13.10
2018-05-15T04:17:03.040Z,13.10
2018-05-15T04:21:55.284Z,13.20
2018-05-15T04:26:47.541Z,13.30
2018-05-15T04:31:39.758Z,13.30
2018-05-15T04:36:32.030Z,13.30
2018-05-15T04:41:24.303Z,13.70
2018-05-15T04:46:16.548Z,14.00
2018-05-15T04:51:08.792Z,14.10
2018-05-15T04:56:01.035Z,14.30
2018-05-15T05:00:52.537Z,14.30
2018-05-15T05:05:44.037Z,14.70
2018-05-15T05:10:35.524Z,17.00
2018-05-15T05:15:27.025Z,20.10
2018-05-15T05:20:18.544Z,22.20
2018-05-15T05:25:10.110Z,23.80
2018-05-15T05:30:01.645Z,25.00
2018-05-15T05:34:53.169Z,26.00
2018-05-15T05:39:44.693Z,27.00
2018-05-15T05:44:36.272Z,27.90
2018-05-15T05:49:27.803Z,28.60
2018-05-15T05:54:19.299Z,28.80
2018-05-15T05:59:10.788Z,28.50
2018-05-15T06:04:03.054Z,30.70
2018-05-15T06:08:54.565Z,30.60
2018-05-15T06:13:46.779Z,32.10
2018-05-15T06:18:38.315Z,32.00
2018-05-15T06:23:29.822Z,31.10
2018-05-15T06:28:21.361Z,30.50
2018-05-15T06:33:12.881Z,29.80
2018-05-15T06:38:04.391Z,29.20
2018-05-15T06:42:56.600Z,25.60
2018-05-15T06:47:48.110Z,25.40
2018-05-15T06:52:39.636Z,27.40
2018-05-15T06:57:31.144Z,30.10
2018-05-15T07:02:23.458Z,31.80
2018-05-15T07:07:14.919Z,31.70
2018-05-15T07:12:06.447Z,31.10
2018-05-15T07:16:57.917Z,29.70
2018-05-15T07:21:49.390Z,27.70
2018-05-15T07:26:40.937Z,27.60
2018-05-15T07:31:32.429Z,28.40
2018-05-15T07:36:23.932Z,29.30
2018-05-15T07:41:16.173Z,31.30
2018-05-15T07:46:08.429Z,31.00
2018-05-15T07:51:00.678Z,31.50
2018-05-15T07:55:52.887Z,31.30
2018-05-15T08:00:44.405Z,31.30
2018-05-15T08:05:35.898Z,29.60
2018-05-15T08:10:28.147Z,31.70
2018-05-15T08:15:20.391Z,30.30
2018-05-15T08:20:12.632Z,31.50
2018-05-15T08:25:04.162Z,31.40
2018-05-15T08:29:55.723Z,32.50
2018-05-15T08:34:47.983Z,31.50
2018-05-15T08:39:39.496Z,31.50
2018-05-15T08:44:30.951Z,30.80
2018-05-15T08:49:23.194Z,33.70
2018-05-15T08:54:16.057Z,33.00
2018-05-15T08:59:08.327Z,33.00
2018-05-15T09:03:59.813Z,33.00
2018-05-15T09:08:51.410Z,32.80
2018-05-15T09:13:42.921Z,31.80
2018-05-15T09:18:35.169Z,31.90
2018-05-15T09:23:27.453Z,33.80
2018-05-15T09:28:18.965Z,33.80
2018-05-15T09:33:10.462Z,32.90
2018-05-15T09:38:01.973Z,32.50
2018-05-15T09:42:53.489Z,33.20
2018-05-15T09:47:45.046Z,31.90
2018-05-15T09:52:36.545Z,32.30
2018-05-15T09:57:28.031Z,31.70
2018-05-15T10:02:19.551Z,31.50
2018-05-15T10:07:11.057Z,30.10
2018-05-15T10:12:02.569Z,30.40
2018-05-15T10:16:54.845Z,28.80
2018-05-15T10:21:46.359Z,28.70
2018-05-15T10:26:37.865Z,28.70
2018-05-15T10:31:31.044Z,26.80
2018-05-15T10:36:23.275Z,27.10
2018-05-15T10:41:14.807Z,27.00
2018-05-15T10:46:08.080Z,27.70
2018-05-15T10:51:00.322Z,27.60
2018-05-15T10:55:51.841Z,27.70
2018-05-15T11:00:43.329Z,26.80
2018-05-15T11:05:35.580Z,26.20
2018-05-15T11:10:27.825Z,26.00
2018-05-15T11:15:20.416Z,25.70
2018-05-15T11:20:31.022Z,25.60
2018-05-15T11:25:22.533Z,25.90
2018-05-15T11:30:14.043Z,27.00
2018-05-15T11:35:05.543Z,26.90
2018-05-15T11:39:57.063Z,26.90
2018-05-15T11:44:48.786Z,26.80
2018-05-15T11:49:41.780Z,26.50
2018-05-15T11:54:31.828Z,26.50
2018-05-15T11:59:23.395Z,26.00
2018-05-15T12:04:14.900Z,25.40
2018-05-15T12:09:06.502Z,25.30
2018-05-15T12:13:58.742Z,26.70
2018-05-15T12:18:50.236Z,26.70
2018-05-15T12:23:41.730Z,26.80
2018-05-15T12:28:33.976Z,26.40
2018-05-15T12:33:26.289Z,26.20
2018-05-15T12:38:17.849Z,26.20
2018-05-15T12:43:09.362Z,26.20
2018-05-15T12:48:01.322Z,27.50
2018-05-15T12:52:52.883Z,28.20
2018-05-15T12:57:45.127Z,26.50
2018-05-15T13:02:37.347Z,26.40
2018-05-15T13:07:28.914Z,26.40
2018-05-15T13:12:20.404Z,26.50
2018-05-15T13:17:11.975Z,26.40
2018-05-15T13:22:03.516Z,25.90
2018-05-15T13:26:55.039Z,26.00
2018-05-15T13:31:47.296Z,26.90
2018-05-15T13:36:39.547Z,27.00
2018-05-15T13:41:31.761Z,26.40
2018-05-15T13:46:23.283Z,26.30
2018-05-15T13:51:14.779Z,25.70
2018-05-15T13:56:06.281Z,25.60
2018-05-15T14:00:57.788Z,25.80
2018-05-15T14:05:49.311Z,26.10
2018-05-15T14:10:40.803Z,26.10
2018-05-15T14:15:33.104Z,26.20
2018-05-15T14:20:24.648Z,26.20
2018-05-15T14:25:16.137Z,25.70
2018-05-15T14:30:07.698Z,25.40
2018-05-15T14:34:59.218Z,24.90
2018-05-15T14:39:50.713Z,25.30
2018-05-15T14:44:42.231Z,25.90
2018-05-15T14:49:33.725Z,26.60
2018-05-15T14:54:25.234Z,26.80
2018-05-15T14:59:16.749Z,26.40
2018-05-15T15:04:09.039Z,25.20
2018-05-15T15:09:00.534Z,25.20
2018-05-15T15:13:52.858Z,25.00
2018-05-15T15:18:44.467Z,24.90
2018-05-15T15:23:35.969Z,25.40
2018-05-15T15:28:28.246Z,26.30
2018-05-15T15:33:19.717Z,26.20
2018-05-15T15:38:11.979Z,26.70
2018-05-15T15:43:03.508Z,26.60
2018-05-15T15:47:55.106Z,27.00
2018-05-15T15:52:46.614Z,26.40
2018-05-15T15:57:38.163Z,25.80
2018-05-15T16:02:29.698Z,25.40
2018-05-15T16:07:21.207Z,25.00
2018-05-15T16:12:13.444Z,25.00
2018-05-15T16:17:05.001Z,25.00
2018-05-15T16:21:57.231Z,24.90
2018-05-15T16:26:48.794Z,24.80
2018-05-15T16:31:40.291Z,24.70
2018-05-15T16:36:31.779Z,24.50
2018-05-15T16:41:23.291Z,24.40
2018-05-15T16:46:15.548Z,24.40
2018-05-15T16:51:07.059Z,24.30
2018-05-15T16:55:59.288Z,24.50
2018-05-15T17:00:50.836Z,24.40
2018-05-15T17:05:43.096Z,24.40
2018-05-15T17:10:35.329Z,24.20
2018-05-15T17:15:26.832Z,24.20
2018-05-15T17:20:18.347Z,24.10
2018-05-15T17:25:10.705Z,24.10
2018-05-15T17:30:02.209Z,24.30
2018-05-15T17:34:54.453Z,24.00
2018-05-15T17:39:46.703Z,23.80
2018-05-15T17:44:38.979Z,23.80
2018-05-15T17:49:30.510Z,23.70
2018-05-15T17:54:22.018Z,23.60
2018-05-15T17:59:14.255Z,23.60
2018-05-15T18:04:05.776Z,23.60
2018-05-15T18:08:57.298Z,23.60
2018-05-15T18:13:48.826Z,23.40
2018-05-15T18:18:40.311Z,23.20
2018-05-15T18:23:32.553Z,22.90
2018-05-15T18:28:24.809Z,22.70
2018-05-15T18:33:17.106Z,22.50
2018-05-15T18:38:08.589Z,22.50
2018-05-15T18:43:00.099Z,22.30
2018-05-15T18:47:51.608Z,22.20
2018-05-15T18:52:43.173Z,22.10
2018-05-15T18:57:34.695Z,22.00
2018-05-15T19:02:26.209Z,21.80
2018-05-15T19:07:17.710Z,21.70
2018-05-15T19:12:09.979Z,21.30
2018-05-15T19:17:01.466Z,21.20
2018-05-15T19:21:52.972Z,21.00
2018-05-15T19:26:44.479Z,20.80
2018-05-15T19:31:36.896Z,20.70
2018-05-15T19:36:30.464Z,20.50
2018-05-15T19:41:22.012Z,20.40
2018-05-15T19:46:18.884Z,20.20
2018-05-15T19:51:11.156Z,19.80
2018-05-15T19:56:02.694Z,18.20
2018-05-15T20:00:54.223Z,19.70
2018-05-15T20:05:45.769Z,19.60
2018-05-15T20:10:37.287Z,19.50
2018-05-15T20:15:29.535Z,19.20
2018-05-15T20:20:21.855Z,19.10
2018-05-15T20:25:13.347Z,19.00
2018-05-15T20:30:04.882Z,19.00
2018-05-15T20:34:56.470Z,18.80
2018-05-15T20:39:47.910Z,18.50
2018-05-15T20:44:40.213Z,18.30
2018-05-15T20:49:31.746Z,18.30
2018-05-15T20:54:24.168Z,18.30
2018-05-15T20:59:16.421Z,18.00
2018-05-15T21:04:07.984Z,17.90
2018-05-15T21:08:59.503Z,17.90
2018-05-15T21:13:50.985Z,17.80
2018-05-15T21:18:42.470Z,17.70
2018-05-15T21:23:34.001Z,17.60
2018-05-15T21:28:25.567Z,17.40
2018-05-15T21:33:17.066Z,17.30
2018-05-15T21:38:08.593Z,17.20
2018-05-15T21:43:00.846Z,17.20
2018-05-15T21:47:52.349Z,17.10
2018-05-15T21:52:44.776Z,17.10
2018-05-15T21:57:36.392Z,17.00
2018-05-15T22:02:27.895Z,17.00
2018-05-15T22:07:20.155Z,16.90
2018-05-15T22:12:30.259Z,16.80
2018-05-15T22:17:40.314Z,16.90
2018-05-15T22:22:32.067Z,17.00
2018-05-15T22:27:23.581Z,17.00
2018-05-15T22:32:15.751Z,17.00
2018-05-15T22:37:07.266Z,17.10
2018-05-15T22:41:58.756Z,17.10
2018-05-15T22:46:50.991Z,17.20
2018-05-15T22:51:42.909Z,17.20
2018-05-15T22:56:34.409Z,17.30
2018-05-15T23:01:25.916Z,17.30
2018-05-15T23:06:17.407Z,17.30
2018-05-15T23:11:08.899Z,17.40
2018-05-15T23:16:01.117Z,17.50
2018-05-15T23:20:52.628Z,17.50
2018-05-15T23:25:44.157Z,17.60
2018-05-15T23:30:35.657Z,17.60
2018-05-15T23:35:27.178Z,17.60
2018-05-15T23:40:19.430Z,17.70
2018-05-15T23:45:11.692Z,17.70
2018-05-15T23:50:04.163Z,17.60
2018-05-15T23:54:55.667Z,17.70
2018-05-15T23:59:47.927Z,17.70
